METAR Data
IDs: Format: Raw Decoded Include TAF

Data at: 1403 UTC 10 Aug 2022

KPVF 101355Z AUTO 00000KT 10SM CLR 18/08 A3010 RMK AO1
KPVF 101335Z AUTO 09004KT 10SM CLR 17/08 A3009 RMK AO1
KPVF 101315Z AUTO 09004KT 10SM CLR 17/08 A3009 RMK AO1
KPVF 101255Z AUTO 09005KT 10SM 17/08 A3009 RMK AO1
KPVF 101235Z AUTO 09005KT 10SM CLR 17/07 A3008 RMK AO1
KPVF 101215Z AUTO 08005KT 10SM FEW044 17/07 A3008 RMK AO1
KPVF 101155Z AUTO 09005KT 10SM FEW046 17/07 A3008 RMK AO1
KPVF 101135Z AUTO 00000KT 10SM CLR 17/07 A3008 RMK AO1
KPVF 101115Z AUTO 09003KT 10SM FEW048 16/08 A3008 RMK AO1
KPVF 101055Z AUTO 09005KT 10SM CLR 16/08 A3008 RMK AO1
KPVF 101035Z AUTO 09003KT 10SM CLR 17/07 A3008 RMK AO1
KPVF 101015Z AUTO 08004KT 10SM CLR 17/07 A3008 RMK AO1
KPVF 100955Z AUTO 08004KT 10SM CLR 17/05 A3008 RMK AO1
KPVF 100935Z AUTO 00000KT 10SM CLR 17/06 A3008 RMK AO1
KPVF 100915Z AUTO 10003KT 10SM CLR 17/05 A3008 RMK AO1
KPVF 100855Z AUTO 00000KT 10SM CLR 17/05 A3008 RMK AO1
KPVF 100835Z AUTO 00000KT 10SM FEW040 17/06 A3008 RMK AO1
KPVF 100815Z AUTO 00000KT 10SM CLR 17/06 A3009 RMK AO1
KPVF 100755Z AUTO 12003KT 10SM CLR 16/07 A3009 RMK AO1
KPVF 100735Z AUTO 13003KT 10SM CLR 16/07 A3009 RMK AO1
KPVF 100715Z AUTO 16003KT 10SM CLR 16/06 A3009 RMK AO1
KPVF 100655Z AUTO 22003KT 10SM CLR 16/07 A3008 RMK AO1
KPVF 100635Z AUTO 21003KT 10SM CLR 17/08 A3008 RMK AO1
KPVF 100615Z AUTO 23003KT 10SM CLR 17/08 A3009 RMK AO1
KPVF 100555Z AUTO 22004KT 10SM FEW034 17/08 A3009 RMK AO1
KPVF 100535Z AUTO 23004KT 10SM CLR 17/08 A3009 RMK AO1
KPVF 100515Z AUTO 21004KT 10SM SCT100 18/07 A3008 RMK AO1
KPVF 100455Z AUTO 24004KT 10SM SCT090 19/08 A3008 RMK AO1
KPVF 100435Z AUTO 23003KT 10SM CLR 19/08 A3007 RMK AO1
KPVF 100415Z AUTO 22003KT 10SM FEW090 20/08 A3006 RMK AO1
KPVF 100355Z AUTO 23004KT 10SM BKN090 21/08 A3006 RMK AO1
KPVF 100335Z AUTO 25004KT 10SM OVC100 22/07 A3006 RMK AO1
KPVF 100315Z AUTO 26004KT 10SM OVC100 23/07 A3006 RMK AO1
KPVF 100255Z AUTO 25005KT 10SM OVC100 24/06 A3005 RMK AO1
KPVF 100235Z AUTO 23004KT 10SM BKN100 25/04 A3005 RMK AO1
KPVF 100215Z AUTO 22003KT 10SM BKN100 26/05 A3005 RMK AO1
KPVF 100155Z AUTO 18003KT 10SM BKN100 26/05 A3004 RMK AO1
KPVF 100135Z AUTO 26005KT 10SM BKN100 25/05 A3004 RMK AO1
KPVF 100115Z AUTO 25004KT 10SM FEW100 25/05 A3004 RMK AO1
KPVF 100055Z AUTO 21003KT 10SM FEW110 25/06 A3004 RMK AO1
KPVF 100035Z AUTO 26004KT 10SM FEW110 26/06 A3004 RMK AO1
KPVF 100015Z AUTO 22004KT 10SM CLR 27/07 A3004 RMK AO1
KPVF 092355Z AUTO 23007KT 10SM CLR 28/08 A3003 RMK AO1
KPVF 092335Z AUTO 24003KT 10SM CLR 28/07 A3004 RMK AO1
KPVF 092315Z AUTO 25006KT 10SM CLR 28/07 A3004 RMK AO1
KPVF 092255Z AUTO 19004KT 10SM CLR 28/07 A3004 RMK AO1
KPVF 092235Z AUTO 21006KT 10SM FEW085 28/07 A3004 RMK AO1
KPVF 092215Z AUTO 24006KT 10SM SCT085 27/06 A3005 RMK AO1
KPVF 092155Z AUTO 23005KT 10SM SCT085 27/07 A3005 RMK AO1
KPVF 092135Z AUTO 28006KT 230V290 10SM CLR 27/08 A3005 RMK AO1
KPVF 092115Z AUTO 20004KT 10SM CLR 27/07 A3006 RMK AO1
KPVF 092055Z AUTO 25004KT 10SM CLR 27/07 A3006 RMK AO1
KPVF 092035Z AUTO 24006KT 10SM CLR 27/07 A3005 RMK AO1
KPVF 092015Z AUTO 21005KT 10SM CLR 26/08 A3006 RMK AO1
KPVF 091955Z AUTO 20006KT 10SM CLR 27/09 A3006 RMK AO1
KPVF 091935Z AUTO 24005KT 10SM CLR 25/10 A3006 RMK AO1
KPVF 091915Z AUTO 22005KT 10SM CLR 25/09 A3006 RMK AO1
KPVF 091855Z AUTO 23005KT 10SM CLR 24/09 A3006 RMK AO1
KPVF 091835Z AUTO 22005KT 10SM CLR 24/09 A3006 RMK AO1
KPVF 091815Z AUTO 23005KT 10SM CLR 24/09 A3006 RMK AO1
KPVF 091755Z AUTO 23005KT 10SM CLR 25/09 A3006 RMK AO1
KPVF 091735Z AUTO 24005KT 10SM CLR 26/09 A3005 RMK AO1
KPVF 091715Z AUTO 24003KT 10SM CLR 25/07 A3005 RMK AO1
KPVF 091655Z AUTO 17003KT 10SM FEW120 25/07 A3005 RMK AO1
KPVF 091635Z AUTO 22004KT 10SM FEW120 24/07 A3005 RMK AO1
KPVF 091615Z AUTO 22003KT 10SM FEW120 23/08 A3005 RMK AO1
KPVF 091555Z AUTO 00000KT 10SM FEW090 SCT120 23/07 A3005 RMK AO1
KPVF 091535Z AUTO 12005KT 10SM FEW120 23/06 A3004 RMK AO1
KPVF 091515Z AUTO 11004KT 10SM CLR 23/05 A3004 RMK AO1
KPVF 091455Z AUTO 13003KT 10SM FEW090 22/05 A3004 RMK AO1
KPVF 091435Z AUTO 14003KT 10SM CLR 20/06 A3004 RMK AO1
KPVF 091415Z AUTO 18003KT 10SM CLR 20/07 A3004 RMK AO1
KPVF 091355Z AUTO 14003KT 10SM FEW120 21/07 A3003 RMK AO1
KPVF 091335Z AUTO 12003KT 10SM SCT120 21/06 A3003 RMK AO1
KPVF 091315Z AUTO 14003KT 10SM BKN120 20/08 A3003 RMK AO1
KPVF 091255Z AUTO 13003KT 10SM BKN120 21/08 A3002 RMK AO1
KPVF 091235Z AUTO 00000KT 10SM OVC120 22/07 A3002 RMK AO1
KPVF 091215Z AUTO 11003KT 10SM OVC120 21/07 A3001 RMK AO1
KPVF 091155Z AUTO 12003KT 10SM 22/08 A3001 RMK AO1
KPVF 091135Z AUTO 00000KT 10SM 22/08 A3001 RMK AO1
KPVF 091115Z AUTO 11003KT 10SM SCT120 21/08 A3001 RMK AO1
KPVF 091055Z AUTO 11003KT 10SM BKN110 21/08 A3001 RMK AO1
KPVF 091035Z AUTO 12005KT 10SM FEW110 22/08 A3001 RMK AO1
KPVF 091015Z AUTO 10004KT 10SM CLR 21/08 A3001 RMK AO1
KPVF 090955Z AUTO 00000KT 10SM FEW120 22/08 A3001 RMK AO1
KPVF 090935Z AUTO 00000KT 10SM CLR 22/08 A3001 RMK AO1
KPVF 090915Z AUTO 13003KT 10SM CLR 22/08 A3002 RMK AO1
KPVF 090855Z AUTO 00000KT 10SM SCT120 23/08 A3001 RMK AO1
KPVF 090835Z AUTO 11004KT 10SM OVC120 22/08 A3002 RMK AO1
KPVF 090815Z AUTO 00000KT 10SM BKN120 22/08 A3002 RMK AO1
KPVF 090755Z AUTO 11004KT 10SM SCT120 21/08 A3002 RMK AO1
KPVF 090735Z AUTO 11004KT 10SM CLR 21/08 A3003 RMK AO1
KPVF 090715Z AUTO 13003KT 10SM CLR 21/08 A3003 RMK AO1
KPVF 090655Z AUTO 12003KT 10SM CLR 21/08 A3003 RMK AO1
KPVF 090635Z AUTO 11003KT 10SM CLR 21/08 A3003 RMK AO1
KPVF 090615Z AUTO 00000KT 10SM CLR 21/08 A3003 RMK AO1
KPVF 090555Z AUTO 15003KT 10SM CLR 21/07 A3003 RMK AO1
KPVF 090535Z AUTO 17004KT 10SM CLR 21/07 A3004 RMK AO1
KPVF 090515Z AUTO 19003KT 10SM CLR 22/08 A3004 RMK AO1
KPVF 090455Z AUTO 21003KT 10SM CLR 21/08 A3004 RMK AO1
KPVF 090435Z AUTO 22005KT 10SM CLR 22/08 A3004 RMK AO1
KPVF 090415Z AUTO 00000KT 10SM CLR 23/07 A3003 RMK AO1
KPVF 090355Z AUTO 00000KT 10SM CLR 24/07 A3003 RMK AO1
KPVF 090335Z AUTO 21003KT 10SM CLR 24/07 A3003 RMK AO1
KPVF 090315Z AUTO 24003KT 10SM CLR 25/07 A3003 RMK AO1
KPVF 090255Z AUTO 26003KT 10SM CLR 25/07 A3003 RMK AO1
KPVF 090235Z AUTO 25005KT 10SM CLR 26/07 A3002 RMK AO1
KPVF 090215Z AUTO 23005KT 10SM CLR 27/07 A3002 RMK AO1